createdAt,value
2023-11-01T00:04:36.582Z,9.13
2023-11-01T00:09:33.960Z,12.60
2023-11-01T00:14:31.018Z,10.35
2023-11-01T00:19:27.895Z,11.95
2023-11-01T00:24:25.428Z,12.07
2023-11-01T00:29:22.903Z,9.73
2023-11-01T00:34:19.768Z,9.43
2023-11-01T00:39:16.627Z,13.65
2023-11-01T00:44:14.215Z,12.90
2023-11-01T00:49:11.884Z,11.10
2023-11-01T00:54:08.744Z,15.13
2023-11-01T00:59:05.845Z,11.40
2023-11-01T01:04:04.337Z,11.52
2023-11-01T01:09:01.874Z,14.25
2023-11-01T01:13:59.060Z,10.57
2023-11-01T01:18:55.961Z,16.35
2023-11-01T01:23:53.565Z,12.45
2023-11-01T01:28:51.081Z,13.50
2023-11-01T01:33:47.899Z,13.48
2023-11-01T01:38:44.726Z,12.88
2023-11-01T01:43:42.311Z,15.32
2023-11-01T01:48:41.688Z,15.30
2023-11-01T01:53:41.230Z,16.10
2023-11-01T01:58:41.579Z,14.80
2023-11-01T02:03:39.252Z,11.13
2023-11-01T02:08:37.318Z,12.15
2023-11-01T02:13:34.244Z,10.43
2023-11-01T02:18:31.153Z,25.45
2023-11-01T02:23:33.251Z,13.93
2023-11-01T02:28:30.936Z,18.00
2023-11-01T02:33:28.035Z,14.65
2023-11-01T02:38:24.988Z,16.77
2023-11-01T02:43:22.633Z,16.02
2023-11-01T02:48:19.951Z,13.70
2023-11-01T02:53:16.781Z,15.07
2023-11-01T02:58:13.915Z,16.20
2023-11-01T03:03:12.164Z,18.13
2023-11-01T03:08:09.843Z,19.55
2023-11-01T03:13:06.779Z,19.27
2023-11-01T03:18:05.351Z,15.85
2023-11-01T03:23:02.917Z,17.52
2023-11-01T03:27:59.879Z,15.07
2023-11-01T03:32:56.807Z,14.20
2023-11-01T03:37:53.681Z,11.43
2023-11-01T03:42:51.298Z,13.45
2023-11-01T03:47:49.586Z,12.13
2023-11-01T03:52:46.492Z,16.60
2023-11-01T03:57:43.361Z,10.95
2023-11-01T04:02:40.928Z,12.05
2023-11-01T04:07:37.891Z,12.15
2023-11-01T04:12:34.849Z,11.23
2023-11-01T04:17:31.941Z,9.05
2023-11-01T04:22:29.499Z,12.55
2023-11-01T04:27:26.819Z,12.85
2023-11-01T04:32:29.003Z,13.55
2023-11-01T04:37:26.941Z,10.27
2023-11-01T04:42:27.798Z,8.68
2023-11-01T04:47:24.731Z,10.02
2023-11-01T04:52:22.858Z,8.38
2023-11-01T04:57:19.732Z,15.57
2023-11-01T05:02:17.232Z,9.93
2023-11-01T05:07:14.182Z,17.00
2023-11-01T05:12:11.352Z,9.77
2023-11-01T05:17:08.262Z,8.75
2023-11-01T05:22:06.546Z,8.20
2023-11-01T05:27:03.560Z,10.77
2023-11-01T05:32:00.555Z,9.13
2023-11-01T05:36:57.594Z,10.20
2023-11-01T05:41:55.197Z,9.52
2023-11-01T05:46:53.106Z,9.13
2023-11-01T05:51:50.904Z,5.15
2023-11-01T05:56:47.812Z,9.85
2023-11-01T06:01:47.923Z,9.00
2023-11-01T06:06:45.718Z,7.72
2023-11-01T06:11:43.834Z,7.35
2023-11-01T06:16:40.837Z,6.13
2023-11-01T06:21:39.772Z,6.70
2023-11-01T06:26:36.614Z,4.68
2023-11-01T06:31:33.593Z,8.25
2023-11-01T06:36:30.490Z,5.80
2023-11-01T06:41:28.490Z,6.00
2023-11-01T06:46:25.575Z,6.57
2023-11-01T06:51:24.536Z,5.88
2023-11-01T06:56:23.223Z,5.90
2023-11-01T07:01:20.973Z,5.97
2023-11-01T07:06:17.940Z,6.03
2023-11-01T07:11:14.842Z,5.22
2023-11-01T07:16:11.958Z,7.10
2023-11-01T07:21:10.906Z,5.88
2023-11-01T07:26:08.451Z,4.95
2023-11-01T07:31:05.867Z,7.15
2023-11-01T07:36:03.268Z,6.70
2023-11-01T07:41:01.228Z,7.30
2023-11-01T07:45:58.285Z,5.63
2023-11-01T07:50:55.462Z,3.90
2023-11-01T07:55:54.487Z,6.55
2023-11-01T08:00:52.316Z,6.22
2023-11-01T08:05:49.236Z,5.65
2023-11-01T08:10:46.122Z,5.35
2023-11-01T08:15:43.145Z,8.57
2023-11-01T08:20:40.924Z,6.20
2023-11-01T08:25:38.637Z,3.00
2023-11-01T08:30:35.542Z,3.50
2023-11-01T08:35:32.471Z,6.13
2023-11-01T08:40:29.956Z,5.22
2023-11-01T08:45:26.744Z,6.55
2023-11-01T08:50:23.573Z,3.72
2023-11-01T08:55:20.485Z,5.03
2023-11-01T09:00:18.740Z,3.30
2023-11-01T09:05:16.465Z,3.03
2023-11-01T09:10:13.582Z,3.00
2023-11-01T09:15:10.601Z,3.17
2023-11-01T09:20:09.126Z,3.55
2023-11-01T09:25:07.086Z,5.38
2023-11-01T09:30:05.232Z,2.95
2023-11-01T09:35:02.165Z,9.48
2023-11-01T09:39:59.974Z,10.88
2023-11-01T09:44:58.056Z,3.38
2023-11-01T09:49:55.507Z,4.90
2023-11-01T09:54:52.380Z,4.82
2023-11-01T09:59:50.708Z,3.08
2023-11-01T10:04:47.642Z,4.80
2023-11-01T10:09:44.471Z,4.63
2023-11-01T10:14:44.772Z,4.88
2023-11-01T10:19:43.521Z,10.13
2023-11-01T10:24:42.096Z,10.13
2023-11-01T10:29:43.668Z,5.38
2023-11-01T10:34:40.546Z,3.05
2023-11-01T10:39:40.577Z,8.75
2023-11-01T10:44:39.100Z,6.38
2023-11-01T10:49:37.758Z,5.63
2023-11-01T10:54:36.305Z,8.40
2023-11-01T10:59:44.323Z,7.93
2023-11-01T11:04:48.005Z,32.60
2023-11-01T11:09:45.384Z,5.70
2023-11-01T11:14:44.236Z,9.48
2023-11-01T11:20:13.434Z,5.38
2023-11-01T11:25:50.433Z,9.88
2023-11-01T11:31:09.594Z,8.27
2023-11-01T11:36:15.174Z,6.75
2023-11-01T11:41:13.842Z,9.38
2023-11-01T11:46:31.802Z,4.95
2023-11-01T11:51:30.535Z,6.35
2023-11-01T11:56:27.978Z,4.55
2023-11-01T12:01:26.556Z,6.80
2023-11-01T12:06:24.965Z,2.90
2023-11-01T12:11:28.819Z,2.42
2023-11-01T12:16:27.170Z,2.83
2023-11-01T12:21:24.803Z,10.68
2023-11-01T12:26:21.781Z,5.90
2023-11-01T12:31:24.618Z,5.40
2023-11-01T12:36:29.774Z,7.85
2023-11-01T12:41:26.831Z,7.50
2023-11-01T12:46:23.768Z,7.47
2023-11-01T12:51:20.707Z,2.60
2023-11-01T12:56:19.605Z,6.07
2023-11-01T13:01:18.282Z,6.30
2023-11-01T13:06:16.225Z,3.75
2023-11-01T13:11:13.701Z,2.83
2023-11-01T13:16:11.375Z,2.00
2023-11-01T13:21:11.167Z,2.67
2023-11-01T13:26:09.610Z,3.00
2023-11-01T13:31:06.695Z,3.35
2023-11-01T13:36:05.214Z,3.72
2023-11-01T13:41:02.323Z,3.35
2023-11-01T13:46:00.889Z,2.30
2023-11-01T13:50:57.957Z,1.42
2023-11-01T13:55:55.619Z,1.48
2023-11-01T14:00:52.609Z,5.10
2023-11-01T14:05:49.518Z,3.50
2023-11-01T14:10:48.164Z,4.63
2023-11-01T14:15:46.285Z,3.08
2023-11-01T14:20:43.186Z,1.48
2023-11-01T14:25:40.279Z,1.90
2023-11-01T14:30:37.124Z,2.22
2023-11-01T14:35:34.725Z,3.30
2023-11-01T14:40:31.797Z,3.05
2023-11-01T14:45:29.404Z,1.33
2023-11-01T14:50:29.559Z,2.85
2023-11-01T14:55:27.410Z,2.13
2023-11-01T15:00:25.078Z,3.08
2023-11-01T15:05:24.373Z,2.25
2023-11-01T15:10:22.687Z,1.90
2023-11-01T15:15:21.002Z,4.45
2023-11-01T15:20:18.296Z,9.40
2023-11-01T15:25:15.444Z,3.28
2023-11-01T15:30:15.118Z,2.83
2023-11-01T15:35:13.137Z,5.15
2023-11-01T15:40:10.747Z,10.00
2023-11-01T15:45:10.014Z,4.65
2023-11-01T15:50:08.034Z,3.20
2023-11-01T15:55:07.731Z,5.10
2023-11-01T16:00:07.147Z,8.38
2023-11-01T16:05:04.537Z,4.60
2023-11-01T16:10:01.548Z,2.83
2023-11-01T16:14:59.375Z,2.65
2023-11-01T16:20:00.697Z,6.50
2023-11-01T16:25:06.788Z,3.83
2023-11-01T16:30:09.403Z,4.53
2023-11-01T16:35:07.514Z,5.97
2023-11-01T16:40:06.041Z,6.13
2023-11-01T16:45:03.378Z,10.25
2023-11-01T16:50:01.265Z,11.45
2023-11-01T16:54:58.623Z,5.32
2023-11-01T16:59:55.636Z,4.93
2023-11-01T17:04:52.673Z,2.95
2023-11-01T17:09:50.490Z,3.72
2023-11-01T17:14:50.158Z,6.18
2023-11-01T17:19:47.913Z,6.30
2023-11-01T17:25:01.368Z,5.30
2023-11-01T17:29:59.848Z,4.10
2023-11-01T17:34:56.813Z,3.92
2023-11-01T17:39:56.792Z,5.07
2023-11-01T17:44:54.207Z,7.88
2023-11-01T17:49:53.829Z,7.28
2023-11-01T17:54:51.753Z,3.60
2023-11-01T17:59:50.860Z,5.40
2023-11-01T18:04:48.095Z,5.47
2023-11-01T18:09:45.151Z,6.65
2023-11-01T18:14:43.113Z,6.97
2023-11-01T18:19:41.586Z,9.05
2023-11-01T18:24:40.278Z,5.93
2023-11-01T18:29:37.807Z,4.38
2023-11-01T18:34:40.622Z,6.00
2023-11-01T18:39:38.560Z,3.58
2023-11-01T18:44:37.213Z,5.05
2023-11-01T18:49:59.549Z,3.88
2023-11-01T18:54:57.326Z,5.90
2023-11-01T18:59:54.386Z,11.23
2023-11-01T19:04:51.702Z,2.90
2023-11-01T19:09:48.652Z,3.78
2023-11-01T19:14:46.499Z,6.22
2023-11-01T19:19:47.733Z,4.25
2023-11-01T19:24:46.705Z,3.67
2023-11-01T19:29:44.604Z,4.53
2023-11-01T19:34:42.363Z,3.53
2023-11-01T19:39:40.201Z,3.00
2023-11-01T19:44:37.949Z,4.13
2023-11-01T19:49:35.400Z,5.00
2023-11-01T19:54:34.814Z,5.43
2023-11-01T19:59:33.664Z,3.00
2023-11-01T20:04:30.632Z,3.53
2023-11-01T20:09:33.845Z,3.35
2023-11-01T20:14:31.783Z,3.53
2023-11-01T20:19:29.766Z,4.15
2023-11-01T20:24:26.695Z,2.90
2023-11-01T20:29:24.764Z,5.07
2023-11-01T20:34:22.497Z,5.57
2023-11-01T20:39:21.058Z,5.38
2023-11-01T20:44:20.676Z,4.72
2023-11-01T20:49:19.828Z,6.38
2023-11-01T20:54:20.541Z,6.85
2023-11-01T20:59:17.699Z,5.68
2023-11-01T21:04:14.727Z,4.20
2023-11-01T21:09:14.553Z,8.82
2023-11-01T21:14:12.260Z,6.20
2023-11-01T21:19:09.778Z,5.53
2023-11-01T21:29:07.066Z,3.65
2023-11-01T21:34:06.793Z,5.03
2023-11-01T21:39:05.695Z,4.05
2023-11-01T21:44:05.173Z,3.47
2023-11-01T21:49:03.197Z,3.60
2023-11-01T21:54:05.463Z,4.35
2023-11-01T21:59:09.913Z,2.83
2023-11-01T22:04:21.375Z,5.63
2023-11-01T22:09:21.527Z,4.75
2023-11-01T22:14:38.384Z,3.72
2023-11-01T22:19:37.293Z,3.97
2023-11-01T22:24:37.567Z,4.38
2023-11-01T22:29:45.674Z,6.10
2023-11-01T22:34:44.230Z,4.40
2023-11-01T22:39:42.912Z,6.30
2023-11-01T22:44:43.977Z,5.25
2023-11-01T22:49:40.883Z,3.75
2023-11-01T22:54:38.822Z,4.40
2023-11-01T22:59:37.673Z,3.63
2023-11-01T23:04:35.231Z,3.15
2023-11-01T23:09:32.535Z,3.72
2023-11-01T23:14:29.554Z,3.25
2023-11-01T23:19:27.280Z,4.38
2023-11-01T23:24:24.536Z,2.70
2023-11-01T23:29:24.925Z,2.65
2023-11-01T23:34:44.233Z,1.80
2023-11-01T23:39:41.075Z,1.95
2023-11-01T23:44:38.031Z,1.60
2023-11-01T23:49:53.795Z,1.73
2023-11-01T23:54:54.592Z,2.63
